sensor_id;sensor_type;location;lat;lon;timestamp;temperature;humidity
15969;DHT22;8085;53.472;9.794;2022-10-31T00:01:26;13.50;99.90
15969;DHT22;8085;53.472;9.794;2022-10-31T00:03:53;13.50;99.90
15969;DHT22;8085;53.472;9.794;2022-10-31T00:06:20;13.40;99.90
15969;DHT22;8085;53.472;9.794;2022-10-31T00:08:51;13.50;99.90
15969;DHT22;8085;53.472;9.794;2022-10-31T00:11:19;13.40;99.90
15969;DHT22;8085;53.472;9.794;2022-10-31T00:13:46;13.40;99.90
15969;DHT22;8085;53.472;9.794;2022-10-31T00:16:16;13.40;99.90
15969;DHT22;8085;53.472;9.794;2022-10-31T00:18:44;13.40;99.90
15969;DHT22;8085;53.472;9.794;2022-10-31T00:21:14;13.40;99.90
15969;DHT22;8085;53.472;9.794;2022-10-31T00:23:41;13.30;99.90
15969;DHT22;8085;53.472;9.794;2022-10-31T00:26:08;13.30;99.90
15969;DHT22;8085;53.472;9.794;2022-10-31T00:28:37;13.30;99.90
15969;DHT22;8085;53.472;9.794;2022-10-31T00:31:06;13.30;99.90
15969;DHT22;8085;53.472;9.794;2022-10-31T00:33:41;13.30;99.90
15969;DHT22;8085;53.472;9.794;2022-10-31T00:36:11;13.20;99.90
15969;DHT22;8085;53.472;9.794;2022-10-31T00:38:38;13.20;99.90
15969;DHT22;8085;53.472;9.794;2022-10-31T00:41:05;13.20;99.90
15969;DHT22;8085;53.472;9.794;2022-10-31T00:43:32;13.20;99.90
15969;DHT22;8085;53.472;9.794;2022-10-31T00:45:58;13.00;99.90
15969;DHT22;8085;53.472;9.794;2022-10-31T00:48:25;13.00;99.90
15969;DHT22;8085;53.472;9.794;2022-10-31T00:50:53;13.00;99.90
15969;DHT22;8085;53.472;9.794;2022-10-31T00:53:20;12.90;99.90
15969;DHT22;8085;53.472;9.794;2022-10-31T00:55:47;12.90;99.90
15969;DHT22;8085;53.472;9.794;2022-10-31T00:58:14;12.80;99.90
15969;DHT22;8085;53.472;9.794;2022-10-31T01:00:41;12.80;99.90
15969;DHT22;8085;53.472;9.794;2022-10-31T01:03:08;12.80;99.90
15969;DHT22;8085;53.472;9.794;2022-10-31T01:05:34;12.80;99.90
15969;DHT22;8085;53.472;9.794;2022-10-31T01:08:03;12.80;99.90
15969;DHT22;8085;53.472;9.794;2022-10-31T01:10:30;12.80;99.90
15969;DHT22;8085;53.472;9.794;2022-10-31T01:12:56;12.80;99.90
15969;DHT22;8085;53.472;9.794;2022-10-31T01:15:23;12.80;99.90
15969;DHT22;8085;53.472;9.794;2022-10-31T01:17:50;12.70;99.90
15969;DHT22;8085;53.472;9.794;2022-10-31T01:20:17;12.70;99.90
15969;DHT22;8085;53.472;9.794;2022-10-31T01:22:44;12.70;99.90
15969;DHT22;8085;53.472;9.794;2022-10-31T01:25:12;12.70;99.90
15969;DHT22;8085;53.472;9.794;2022-10-31T01:27:39;12.70;99.90
15969;DHT22;8085;53.472;9.794;2022-10-31T01:30:06;12.70;99.90
15969;DHT22;8085;53.472;9.794;2022-10-31T01:32:34;12.70;99.90
15969;DHT22;8085;53.472;9.794;2022-10-31T01:35:00;12.70;99.90
15969;DHT22;8085;53.472;9.794;2022-10-31T01:37:27;12.70;99.90
15969;DHT22;8085;53.472;9.794;2022-10-31T01:39:54;12.70;99.90
15969;DHT22;8085;53.472;9.794;2022-10-31T01:42:23;12.70;99.90
15969;DHT22;8085;53.472;9.794;2022-10-31T01:44:56;12.60;99.90
15969;DHT22;8085;53.472;9.794;2022-10-31T01:47:35;12.70;99.90
15969;DHT22;8085;53.472;9.794;2022-10-31T01:50:06;12.60;99.90
15969;DHT22;8085;53.472;9.794;2022-10-31T01:52:38;12.70;99.90
15969;DHT22;8085;53.472;9.794;2022-10-31T01:55:09;12.70;99.90
15969;DHT22;8085;53.472;9.794;2022-10-31T01:57:41;12.70;99.90
15969;DHT22;8085;53.472;9.794;2022-10-31T02:00:10;12.80;99.90
15969;DHT22;8085;53.472;9.794;2022-10-31T02:02:38;12.80;99.90
15969;DHT22;8085;53.472;9.794;2022-10-31T02:05:08;12.80;99.90
15969;DHT22;8085;53.472;9.794;2022-10-31T02:07:39;12.80;99.90
15969;DHT22;8085;53.472;9.794;2022-10-31T02:10:08;12.80;99.90
15969;DHT22;8085;53.472;9.794;2022-10-31T02:12:35;12.80;99.90
15969;DHT22;8085;53.472;9.794;2022-10-31T02:15:05;12.80;99.90
15969;DHT22;8085;53.472;9.794;2022-10-31T02:17:33;12.80;99.90
15969;DHT22;8085;53.472;9.794;2022-10-31T02:20:07;12.80;99.90
15969;DHT22;8085;53.472;9.794;2022-10-31T02:22:40;12.70;99.90
15969;DHT22;8085;53.472;9.794;2022-10-31T02:25:28;12.70;99.90
15969;DHT22;8085;53.472;9.794;2022-10-31T02:28:18;12.70;99.90
15969;DHT22;8085;53.472;9.794;2022-10-31T02:31:18;12.70;99.90
15969;DHT22;8085;53.472;9.794;2022-10-31T02:33:51;12.70;99.90
15969;DHT22;8085;53.472;9.794;2022-10-31T02:36:22;12.60;99.90
15969;DHT22;8085;53.472;9.794;2022-10-31T02:38:58;12.60;99.90
15969;DHT22;8085;53.472;9.794;2022-10-31T02:41:33;12.60;99.90
15969;DHT22;8085;53.472;9.794;2022-10-31T02:44:07;12.60;99.90
15969;DHT22;8085;53.472;9.794;2022-10-31T02:46:42;12.60;99.90
15969;DHT22;8085;53.472;9.794;2022-10-31T02:49:18;12.60;99.90
15969;DHT22;8085;53.472;9.794;2022-10-31T02:51:48;12.60;99.90
15969;DHT22;8085;53.472;9.794;2022-10-31T02:54:20;12.50;99.90
15969;DHT22;8085;53.472;9.794;2022-10-31T02:56:49;12.50;99.90
15969;DHT22;8085;53.472;9.794;2022-10-31T02:59:17;12.50;99.90
15969;DHT22;8085;53.472;9.794;2022-10-31T03:02:27;12.50;99.90
15969;DHT22;8085;53.472;9.794;2022-10-31T03:05:13;12.50;99.90
15969;DHT22;8085;53.472;9.794;2022-10-31T03:07:47;12.50;99.90
15969;DHT22;8085;53.472;9.794;2022-10-31T03:10:20;12.50;99.90
15969;DHT22;8085;53.472;9.794;2022-10-31T03:12:57;12.40;99.90
15969;DHT22;8085;53.472;9.794;2022-10-31T03:15:28;12.40;99.90
15969;DHT22;8085;53.472;9.794;2022-10-31T03:18:01;12.40;99.90
15969;DHT22;8085;53.472;9.794;2022-10-31T03:20:33;12.40;99.90
15969;DHT22;8085;53.472;9.794;2022-10-31T03:23:03;12.40;99.90
15969;DHT22;8085;53.472;9.794;2022-10-31T03:25:31;12.30;99.90
15969;DHT22;8085;53.472;9.794;2022-10-31T03:28:01;12.30;99.90
15969;DHT22;8085;53.472;9.794;2022-10-31T03:30:30;12.30;99.90
15969;DHT22;8085;53.472;9.794;2022-10-31T03:33:03;12.30;99.90
15969;DHT22;8085;53.472;9.794;2022-10-31T03:35:32;12.30;99.90
15969;DHT22;8085;53.472;9.794;2022-10-31T03:38:00;12.30;99.90
15969;DHT22;8085;53.472;9.794;2022-10-31T03:40:29;12.30;99.90
15969;DHT22;8085;53.472;9.794;2022-10-31T03:43:00;12.20;99.90
15969;DHT22;8085;53.472;9.794;2022-10-31T03:45:31;12.20;99.90
15969;DHT22;8085;53.472;9.794;2022-10-31T03:48:00;12.20;99.90
15969;DHT22;8085;53.472;9.794;2022-10-31T03:50:30;12.20;99.90
15969;DHT22;8085;53.472;9.794;2022-10-31T03:53:04;12.20;99.90
15969;DHT22;8085;53.472;9.794;2022-10-31T03:55:39;12.20;99.90
15969;DHT22;8085;53.472;9.794;2022-10-31T03:58:09;12.20;99.90
15969;DHT22;8085;53.472;9.794;2022-10-31T04:00:39;12.10;99.90
15969;DHT22;8085;53.472;9.794;2022-10-31T04:03:11;12.10;99.90
15969;DHT22;8085;53.472;9.794;2022-10-31T04:05:38;12.10;99.90
15969;DHT22;8085;53.472;9.794;2022-10-31T04:08:09;12.10;99.90
15969;DHT22;8085;53.472;9.794;2022-10-31T04:10:39;12.10;99.90
15969;DHT22;8085;53.472;9.794;2022-10-31T04:13:10;12.10;99.90
15969;DHT22;8085;53.472;9.794;2022-10-31T04:15:38;12.10;99.90
15969;DHT22;8085;53.472;9.794;2022-10-31T04:18:08;12.10;99.90
15969;DHT22;8085;53.472;9.794;2022-10-31T04:20:37;12.10;99.90
15969;DHT22;8085;53.472;9.794;2022-10-31T04:23:05;12.20;99.90
15969;DHT22;8085;53.472;9.794;2022-10-31T04:25:34;12.20;99.90
15969;DHT22;8085;53.472;9.794;2022-10-31T04:28:01;12.20;99.90
15969;DHT22;8085;53.472;9.794;2022-10-31T04:30:28;12.20;99.90
15969;DHT22;8085;53.472;9.794;2022-10-31T04:32:55;12.20;99.90
15969;DHT22;8085;53.472;9.794;2022-10-31T04:35:23;12.20;99.90
15969;DHT22;8085;53.472;9.794;2022-10-31T04:37:50;12.20;99.90
15969;DHT22;8085;53.472;9.794;2022-10-31T04:40:16;12.20;99.90
15969;DHT22;8085;53.472;9.794;2022-10-31T04:42:43;12.20;99.90
15969;DHT22;8085;53.472;9.794;2022-10-31T04:45:10;12.20;99.90
15969;DHT22;8085;53.472;9.794;2022-10-31T04:47:37;12.20;99.90
15969;DHT22;8085;53.472;9.794;2022-10-31T04:50:04;12.20;99.90
15969;DHT22;8085;53.472;9.794;2022-10-31T04:52:32;12.20;99.90
15969;DHT22;8085;53.472;9.794;2022-10-31T04:55:05;12.20;99.90
15969;DHT22;8085;53.472;9.794;2022-10-31T04:57:32;12.20;99.90
15969;DHT22;8085;53.472;9.794;2022-10-31T04:59:59;12.10;99.90
15969;DHT22;8085;53.472;9.794;2022-10-31T05:02:25;12.10;99.90
15969;DHT22;8085;53.472;9.794;2022-10-31T05:04:52;12.10;99.90
15969;DHT22;8085;53.472;9.794;2022-10-31T05:07:19;12.10;99.90
15969;DHT22;8085;53.472;9.794;2022-10-31T05:09:47;12.10;99.90
15969;DHT22;8085;53.472;9.794;2022-10-31T05:12:14;12.10;99.90
15969;DHT22;8085;53.472;9.794;2022-10-31T05:14:40;12.10;99.90
15969;DHT22;8085;53.472;9.794;2022-10-31T05:17:07;12.10;99.90
15969;DHT22;8085;53.472;9.794;2022-10-31T05:19:34;12.00;99.90
15969;DHT22;8085;53.472;9.794;2022-10-31T05:22:01;12.00;99.90
15969;DHT22;8085;53.472;9.794;2022-10-31T05:24:27;12.00;99.90
15969;DHT22;8085;53.472;9.794;2022-10-31T05:26:56;12.00;99.90
15969;DHT22;8085;53.472;9.794;2022-10-31T05:29:22;12.00;99.90
15969;DHT22;8085;53.472;9.794;2022-10-31T05:31:49;12.00;99.90
15969;DHT22;8085;53.472;9.794;2022-10-31T05:34:16;12.00;99.90
15969;DHT22;8085;53.472;9.794;2022-10-31T05:36:43;12.00;99.90
15969;DHT22;8085;53.472;9.794;2022-10-31T05:39:09;12.00;99.90
15969;DHT22;8085;53.472;9.794;2022-10-31T05:41:36;12.00;99.90
15969;DHT22;8085;53.472;9.794;2022-10-31T05:44:05;12.00;99.90
15969;DHT22;8085;53.472;9.794;2022-10-31T05:46:31;12.00;99.90
15969;DHT22;8085;53.472;9.794;2022-10-31T05:48:58;12.00;99.90
15969;DHT22;8085;53.472;9.794;2022-10-31T05:51:25;12.00;99.90
15969;DHT22;8085;53.472;9.794;2022-10-31T05:53:52;12.00;99.90
15969;DHT22;8085;53.472;9.794;2022-10-31T05:56:19;12.00;99.90
15969;DHT22;8085;53.472;9.794;2022-10-31T05:58:46;12.00;99.90
15969;DHT22;8085;53.472;9.794;2022-10-31T06:01:14;12.00;99.90
15969;DHT22;8085;53.472;9.794;2022-10-31T06:03:41;12.00;99.90
15969;DHT22;8085;53.472;9.794;2022-10-31T06:06:07;12.00;99.90
15969;DHT22;8085;53.472;9.794;2022-10-31T06:08:34;12.00;99.90
15969;DHT22;8085;53.472;9.794;2022-10-31T06:11:01;12.00;99.90
15969;DHT22;8085;53.472;9.794;2022-10-31T06:13:28;12.00;99.90
15969;DHT22;8085;53.472;9.794;2022-10-31T06:15:54;12.00;99.90
15969;DHT22;8085;53.472;9.794;2022-10-31T06:18:22;12.00;99.90
15969;DHT22;8085;53.472;9.794;2022-10-31T06:20:50;12.00;99.90
15969;DHT22;8085;53.472;9.794;2022-10-31T06:23:17;12.00;99.90
15969;DHT22;8085;53.472;9.794;2022-10-31T06:25:47;12.00;99.90
15969;DHT22;8085;53.472;9.794;2022-10-31T06:28:14;12.00;99.90
15969;DHT22;8085;53.472;9.794;2022-10-31T06:30:41;12.00;99.90
15969;DHT22;8085;53.472;9.794;2022-10-31T06:33:08;12.00;99.90
15969;DHT22;8085;53.472;9.794;2022-10-31T06:35:36;12.00;99.90
15969;DHT22;8085;53.472;9.794;2022-10-31T06:38:03;12.00;99.90
15969;DHT22;8085;53.472;9.794;2022-10-31T06:40:29;12.00;99.90
15969;DHT22;8085;53.472;9.794;2022-10-31T06:42:57;12.00;99.90
15969;DHT22;8085;53.472;9.794;2022-10-31T06:45:24;12.00;99.90
15969;DHT22;8085;53.472;9.794;2022-10-31T06:47:51;12.00;99.90
15969;DHT22;8085;53.472;9.794;2022-10-31T06:50:19;12.00;99.90
15969;DHT22;8085;53.472;9.794;2022-10-31T06:52:51;12.00;99.90
15969;DHT22;8085;53.472;9.794;2022-10-31T06:55:18;12.00;99.90
15969;DHT22;8085;53.472;9.794;2022-10-31T06:57:50;12.00;99.90
15969;DHT22;8085;53.472;9.794;2022-10-31T07:00:17;12.00;99.90
15969;DHT22;8085;53.472;9.794;2022-10-31T07:02:51;11.90;99.90
15969;DHT22;8085;53.472;9.794;2022-10-31T07:05:18;12.00;99.90
15969;DHT22;8085;53.472;9.794;2022-10-31T07:07:45;12.00;99.90
15969;DHT22;8085;53.472;9.794;2022-10-31T07:10:13;12.00;99.90
15969;DHT22;8085;53.472;9.794;2022-10-31T07:12:40;11.90;99.90
15969;DHT22;8085;53.472;9.794;2022-10-31T07:15:07;11.90;99.90
15969;DHT22;8085;53.472;9.794;2022-10-31T07:17:34;11.90;99.90
15969;DHT22;8085;53.472;9.794;2022-10-31T07:20:01;11.90;99.90
15969;DHT22;8085;53.472;9.794;2022-10-31T07:22:33;11.90;99.90
15969;DHT22;8085;53.472;9.794;2022-10-31T07:25:00;11.90;99.90
15969;DHT22;8085;53.472;9.794;2022-10-31T07:27:28;11.90;99.90
15969;DHT22;8085;53.472;9.794;2022-10-31T07:29:54;11.90;99.90
15969;DHT22;8085;53.472;9.794;2022-10-31T07:32:21;11.90;99.90
15969;DHT22;8085;53.472;9.794;2022-10-31T07:34:48;11.80;99.90
15969;DHT22;8085;53.472;9.794;2022-10-31T07:37:15;11.80;99.90
15969;DHT22;8085;53.472;9.794;2022-10-31T07:39:42;11.90;99.90
15969;DHT22;8085;53.472;9.794;2022-10-31T07:42:09;11.90;99.90
15969;DHT22;8085;53.472;9.794;2022-10-31T07:44:37;11.90;99.90
15969;DHT22;8085;53.472;9.794;2022-10-31T07:47:04;11.90;99.90
15969;DHT22;8085;53.472;9.794;2022-10-31T07:49:30;11.90;99.90
15969;DHT22;8085;53.472;9.794;2022-10-31T07:51:57;11.90;99.90
15969;DHT22;8085;53.472;9.794;2022-10-31T07:54:24;11.90;99.90
15969;DHT22;8085;53.472;9.794;2022-10-31T07:56:51;12.00;99.90
15969;DHT22;8085;53.472;9.794;2022-10-31T07:59:17;12.00;99.90
15969;DHT22;8085;53.472;9.794;2022-10-31T08:01:45;12.00;99.90
15969;DHT22;8085;53.472;9.794;2022-10-31T08:04:12;11.90;99.90
15969;DHT22;8085;53.472;9.794;2022-10-31T08:06:39;11.90;99.90
15969;DHT22;8085;53.472;9.794;2022-10-31T08:09:06;11.90;99.90
15969;DHT22;8085;53.472;9.794;2022-10-31T08:11:33;11.90;99.90
15969;DHT22;8085;53.472;9.794;2022-10-31T08:14:00;11.90;99.90
15969;DHT22;8085;53.472;9.794;2022-10-31T08:16:27;12.00;99.90
15969;DHT22;8085;53.472;9.794;2022-10-31T08:18:55;12.10;99.90
15969;DHT22;8085;53.472;9.794;2022-10-31T08:21:22;12.10;99.90
15969;DHT22;8085;53.472;9.794;2022-10-31T08:23:49;12.10;99.90
15969;DHT22;8085;53.472;9.794;2022-10-31T08:26:15;12.10;99.90
15969;DHT22;8085;53.472;9.794;2022-10-31T08:28:42;12.10;99.90
15969;DHT22;8085;53.472;9.794;2022-10-31T08:31:09;12.20;99.90
15969;DHT22;8085;53.472;9.794;2022-10-31T08:33:36;12.20;99.90
15969;DHT22;8085;53.472;9.794;2022-10-31T08:36:04;12.20;99.90
15969;DHT22;8085;53.472;9.794;2022-10-31T08:38:31;12.20;99.90
15969;DHT22;8085;53.472;9.794;2022-10-31T08:40:58;12.20;99.90
15969;DHT22;8085;53.472;9.794;2022-10-31T08:43:25;12.20;99.90
15969;DHT22;8085;53.472;9.794;2022-10-31T08:45:52;12.30;99.90
15969;DHT22;8085;53.472;9.794;2022-10-31T08:48:20;12.30;99.90
15969;DHT22;8085;53.472;9.794;2022-10-31T08:50:47;12.30;99.90
15969;DHT22;8085;53.472;9.794;2022-10-31T08:53:16;12.30;99.90
15969;DHT22;8085;53.472;9.794;2022-10-31T08:55:45;12.30;99.90
15969;DHT22;8085;53.472;9.794;2022-10-31T08:58:13;12.30;99.90
15969;DHT22;8085;53.472;9.794;2022-10-31T09:00:41;12.30;99.90
15969;DHT22;8085;53.472;9.794;2022-10-31T09:03:11;12.30;99.90
15969;DHT22;8085;53.472;9.794;2022-10-31T09:05:38;12.40;99.90
15969;DHT22;8085;53.472;9.794;2022-10-31T09:08:06;12.40;99.90
15969;DHT22;8085;53.472;9.794;2022-10-31T09:10:36;12.50;99.90
15969;DHT22;8085;53.472;9.794;2022-10-31T09:13:05;12.50;99.90
15969;DHT22;8085;53.472;9.794;2022-10-31T09:15:33;12.30;99.90
15969;DHT22;8085;53.472;9.794;2022-10-31T09:18:02;12.40;99.90
15969;DHT22;8085;53.472;9.794;2022-10-31T09:20:30;12.40;99.90
15969;DHT22;8085;53.472;9.794;2022-10-31T09:22:59;12.50;99.90
15969;DHT22;8085;53.472;9.794;2022-10-31T09:25:27;12.60;99.90
15969;DHT22;8085;53.472;9.794;2022-10-31T09:27:57;12.70;99.90
15969;DHT22;8085;53.472;9.794;2022-10-31T09:30:24;12.70;99.90
15969;DHT22;8085;53.472;9.794;2022-10-31T09:32:55;12.80;99.90
15969;DHT22;8085;53.472;9.794;2022-10-31T09:35:22;12.90;99.90
15969;DHT22;8085;53.472;9.794;2022-10-31T09:37:54;12.90;99.90
15969;DHT22;8085;53.472;9.794;2022-10-31T09:40:21;13.00;99.90
15969;DHT22;8085;53.472;9.794;2022-10-31T09:42:55;13.00;99.90
15969;DHT22;8085;53.472;9.794;2022-10-31T09:45:28;13.00;99.90
15969;DHT22;8085;53.472;9.794;2022-10-31T09:48:05;13.00;99.90
15969;DHT22;8085;53.472;9.794;2022-10-31T09:50:40;13.00;99.90
15969;DHT22;8085;53.472;9.794;2022-10-31T09:53:12;13.10;99.90
15969;DHT22;8085;53.472;9.794;2022-10-31T09:55:41;13.00;99.90
15969;DHT22;8085;53.472;9.794;2022-10-31T09:58:14;12.90;99.90
15969;DHT22;8085;53.472;9.794;2022-10-31T10:00:44;13.00;99.90
15969;DHT22;8085;53.472;9.794;2022-10-31T10:03:20;13.00;99.90
15969;DHT22;8085;53.472;9.794;2022-10-31T10:05:52;13.00;99.90
15969;DHT22;8085;53.472;9.794;2022-10-31T10:08:23;13.00;99.90
15969;DHT22;8085;53.472;9.794;2022-10-31T10:10:55;12.90;99.90
15969;DHT22;8085;53.472;9.794;2022-10-31T10:13:36;12.90;99.90
15969;DHT22;8085;53.472;9.794;2022-10-31T10:16:18;12.90;99.90
15969;DHT22;8085;53.472;9.794;2022-10-31T10:19:00;12.90;99.90
15969;DHT22;8085;53.472;9.794;2022-10-31T10:21:37;12.90;99.90
15969;DHT22;8085;53.472;9.794;2022-10-31T10:24:17;12.90;99.90
15969;DHT22;8085;53.472;9.794;2022-10-31T10:26:52;13.00;99.90
15969;DHT22;8085;53.472;9.794;2022-10-31T10:29:31;13.00;99.90
15969;DHT22;8085;53.472;9.794;2022-10-31T10:32:08;13.10;99.90
15969;DHT22;8085;53.472;9.794;2022-10-31T10:34:41;13.10;99.90
15969;DHT22;8085;53.472;9.794;2022-10-31T10:37:20;13.10;99.90
15969;DHT22;8085;53.472;9.794;2022-10-31T10:39:51;13.00;99.90
15969;DHT22;8085;53.472;9.794;2022-10-31T10:42:18;13.00;99.90
15969;DHT22;8085;53.472;9.794;2022-10-31T10:45:14;13.10;99.90
15969;DHT22;8085;53.472;9.794;2022-10-31T10:48:06;13.10;99.90
15969;DHT22;8085;53.472;9.794;2022-10-31T10:50:39;13.10;99.90
15969;DHT22;8085;53.472;9.794;2022-10-31T10:53:18;13.20;99.90
15969;DHT22;8085;53.472;9.794;2022-10-31T10:56:00;13.20;99.90
15969;DHT22;8085;53.472;9.794;2022-10-31T10:58:29;13.20;99.90
15969;DHT22;8085;53.472;9.794;2022-10-31T11:00:55;13.20;99.90
15969;DHT22;8085;53.472;9.794;2022-10-31T11:03:24;13.20;99.90
15969;DHT22;8085;53.472;9.794;2022-10-31T11:05:52;13.20;99.90
15969;DHT22;8085;53.472;9.794;2022-10-31T11:08:24;13.20;99.90
15969;DHT22;8085;53.472;9.794;2022-10-31T11:10:58;13.20;99.90
15969;DHT22;8085;53.472;9.794;2022-10-31T11:13:25;13.30;99.90
15969;DHT22;8085;53.472;9.794;2022-10-31T11:15:58;13.30;99.90
15969;DHT22;8085;53.472;9.794;2022-10-31T11:18:29;13.30;99.90
15969;DHT22;8085;53.472;9.794;2022-10-31T11:20:58;13.30;99.90
15969;DHT22;8085;53.472;9.794;2022-10-31T11:23:26;13.40;99.90
15969;DHT22;8085;53.472;9.794;2022-10-31T11:25:56;13.40;99.90
15969;DHT22;8085;53.472;9.794;2022-10-31T11:28:24;13.50;99.90
15969;DHT22;8085;53.472;9.794;2022-10-31T11:30:53;13.40;99.90
15969;DHT22;8085;53.472;9.794;2022-10-31T11:33:25;13.50;99.90
15969;DHT22;8085;53.472;9.794;2022-10-31T11:35:55;13.50;99.90
15969;DHT22;8085;53.472;9.794;2022-10-31T11:38:24;13.60;99.90
15969;DHT22;8085;53.472;9.794;2022-10-31T11:40:53;13.60;99.90
15969;DHT22;8085;53.472;9.794;2022-10-31T11:43:21;13.60;99.90
15969;DHT22;8085;53.472;9.794;2022-10-31T11:45:48;13.70;99.90
15969;DHT22;8085;53.472;9.794;2022-10-31T11:48:17;13.70;99.90
15969;DHT22;8085;53.472;9.794;2022-10-31T11:50:48;13.80;99.90
15969;DHT22;8085;53.472;9.794;2022-10-31T11:53:19;13.80;99.90
15969;DHT22;8085;53.472;9.794;2022-10-31T11:55:46;13.90;99.90
15969;DHT22;8085;53.472;9.794;2022-10-31T11:58:21;14.00;99.90
15969;DHT22;8085;53.472;9.794;2022-10-31T12:00:50;14.00;99.90
15969;DHT22;8085;53.472;9.794;2022-10-31T12:03:36;13.90;99.90
15969;DHT22;8085;53.472;9.794;2022-10-31T12:06:07;13.90;99.90
15969;DHT22;8085;53.472;9.794;2022-10-31T12:08:40;14.00;99.90
15969;DHT22;8085;53.472;9.794;2022-10-31T12:11:15;14.00;99.90
15969;DHT22;8085;53.472;9.794;2022-10-31T12:13:55;14.00;99.90
15969;DHT22;8085;53.472;9.794;2022-10-31T12:16:29;13.90;99.90
15969;DHT22;8085;53.472;9.794;2022-10-31T12:19:02;13.90;99.90
15969;DHT22;8085;53.472;9.794;2022-10-31T12:21:47;13.90;99.90
15969;DHT22;8085;53.472;9.794;2022-10-31T12:24:33;14.00;99.90
15969;DHT22;8085;53.472;9.794;2022-10-31T12:27:09;14.00;99.90
15969;DHT22;8085;53.472;9.794;2022-10-31T12:30:00;14.00;99.90
15969;DHT22;8085;53.472;9.794;2022-10-31T12:32:34;14.00;99.90
15969;DHT22;8085;53.472;9.794;2022-10-31T12:35:17;14.00;99.90
15969;DHT22;8085;53.472;9.794;2022-10-31T12:38:00;14.10;99.90
15969;DHT22;8085;53.472;9.794;2022-10-31T12:40:47;14.10;99.90
15969;DHT22;8085;53.472;9.794;2022-10-31T12:43:28;14.10;99.90
15969;DHT22;8085;53.472;9.794;2022-10-31T12:45:59;14.10;99.90
15969;DHT22;8085;53.472;9.794;2022-10-31T12:49:01;14.20;99.90
15969;DHT22;8085;53.472;9.794;2022-10-31T12:51:37;14.20;99.90
15969;DHT22;8085;53.472;9.794;2022-10-31T12:54:21;14.30;99.90
15969;DHT22;8085;53.472;9.794;2022-10-31T12:56:58;14.30;99.90
15969;DHT22;8085;53.472;9.794;2022-10-31T12:59:30;14.30;99.90
15969;DHT22;8085;53.472;9.794;2022-10-31T13:02:01;14.40;99.90
15969;DHT22;8085;53.472;9.794;2022-10-31T13:04:41;14.30;99.90
15969;DHT22;8085;53.472;9.794;2022-10-31T13:07:14;14.30;99.90
15969;DHT22;8085;53.472;9.794;2022-10-31T13:09:51;14.30;99.90
15969;DHT22;8085;53.472;9.794;2022-10-31T13:12:22;14.30;99.90
15969;DHT22;8085;53.472;9.794;2022-10-31T13:14:53;14.30;99.90
15969;DHT22;8085;53.472;9.794;2022-10-31T13:17:25;14.30;99.90
15969;DHT22;8085;53.472;9.794;2022-10-31T13:20:03;14.30;99.90
15969;DHT22;8085;53.472;9.794;2022-10-31T13:22:36;14.30;99.90
15969;DHT22;8085;53.472;9.794;2022-10-31T13:25:11;14.30;99.90
15969;DHT22;8085;53.472;9.794;2022-10-31T13:27:47;14.40;99.90
15969;DHT22;8085;53.472;9.794;2022-10-31T13:30:17;14.50;99.90
15969;DHT22;8085;53.472;9.794;2022-10-31T13:32:50;14.50;99.90
15969;DHT22;8085;53.472;9.794;2022-10-31T13:35:24;14.60;99.90
15969;DHT22;8085;53.472;9.794;2022-10-31T13:38:03;14.60;99.90
15969;DHT22;8085;53.472;9.794;2022-10-31T13:40:41;14.50;99.90
15969;DHT22;8085;53.472;9.794;2022-10-31T13:43:19;14.50;99.90
15969;DHT22;8085;53.472;9.794;2022-10-31T13:45:49;14.50;99.90
15969;DHT22;8085;53.472;9.794;2022-10-31T13:48:36;14.50;99.90
15969;DHT22;8085;53.472;9.794;2022-10-31T13:51:06;14.60;99.90
15969;DHT22;8085;53.472;9.794;2022-10-31T13:53:58;14.60;99.90
15969;DHT22;8085;53.472;9.794;2022-10-31T13:56:27;14.60;99.90
15969;DHT22;8085;53.472;9.794;2022-10-31T13:59:11;14.60;99.90
15969;DHT22;8085;53.472;9.794;2022-10-31T14:01:46;14.60;99.90
15969;DHT22;8085;53.472;9.794;2022-10-31T14:04:16;14.60;99.90
15969;DHT22;8085;53.472;9.794;2022-10-31T14:06:48;14.60;99.90
15969;DHT22;8085;53.472;9.794;2022-10-31T14:09:28;14.50;99.90
15969;DHT22;8085;53.472;9.794;2022-10-31T14:11:57;14.50;99.90
15969;DHT22;8085;53.472;9.794;2022-10-31T14:14:32;14.50;99.90
15969;DHT22;8085;53.472;9.794;2022-10-31T14:17:00;14.50;99.90
15969;DHT22;8085;53.472;9.794;2022-10-31T14:19:27;14.50;99.90
15969;DHT22;8085;53.472;9.794;2022-10-31T14:21:54;14.40;99.90
15969;DHT22;8085;53.472;9.794;2022-10-31T14:24:33;14.40;99.90
15969;DHT22;8085;53.472;9.794;2022-10-31T14:27:03;14.40;99.90
15969;DHT22;8085;53.472;9.794;2022-10-31T14:29:32;14.40;99.90
15969;DHT22;8085;53.472;9.794;2022-10-31T14:32:05;14.40;99.90
15969;DHT22;8085;53.472;9.794;2022-10-31T14:34:38;14.40;99.90
15969;DHT22;8085;53.472;9.794;2022-10-31T14:37:19;14.40;99.90
15969;DHT22;8085;53.472;9.794;2022-10-31T14:40:04;14.40;99.90
15969;DHT22;8085;53.472;9.794;2022-10-31T14:42:42;14.30;99.90
15969;DHT22;8085;53.472;9.794;2022-10-31T14:45:25;14.30;99.90
15969;DHT22;8085;53.472;9.794;2022-10-31T14:48:04;14.30;99.90
15969;DHT22;8085;53.472;9.794;2022-10-31T14:50:41;14.30;99.90
15969;DHT22;8085;53.472;9.794;2022-10-31T14:53:14;14.20;99.90
15969;DHT22;8085;53.472;9.794;2022-10-31T14:55:46;14.20;99.90
15969;DHT22;8085;53.472;9.794;2022-10-31T14:58:18;14.10;99.90
15969;DHT22;8085;53.472;9.794;2022-10-31T15:00:47;14.10;99.90
15969;DHT22;8085;53.472;9.794;2022-10-31T15:03:16;14.00;99.90
15969;DHT22;8085;53.472;9.794;2022-10-31T15:05:48;14.00;99.90
15969;DHT22;8085;53.472;9.794;2022-10-31T15:08:32;14.00;99.90
15969;DHT22;8085;53.472;9.794;2022-10-31T15:11:03;13.90;99.90
15969;DHT22;8085;53.472;9.794;2022-10-31T15:13:41;13.90;99.90
15969;DHT22;8085;53.472;9.794;2022-10-31T15:16:11;13.90;99.90
15969;DHT22;8085;53.472;9.794;2022-10-31T15:18:47;13.80;99.90
15969;DHT22;8085;53.472;9.794;2022-10-31T15:21:15;13.80;99.90
15969;DHT22;8085;53.472;9.794;2022-10-31T15:23:43;13.80;99.90
15969;DHT22;8085;53.472;9.794;2022-10-31T15:26:16;13.80;99.90
15969;DHT22;8085;53.472;9.794;2022-10-31T15:28:43;13.80;99.90
15969;DHT22;8085;53.472;9.794;2022-10-31T15:31:16;13.70;99.90
15969;DHT22;8085;53.472;9.794;2022-10-31T15:33:47;13.70;99.90
15969;DHT22;8085;53.472;9.794;2022-10-31T15:36:19;13.70;99.90
15969;DHT22;8085;53.472;9.794;2022-10-31T15:38:46;13.60;99.90
15969;DHT22;8085;53.472;9.794;2022-10-31T15:41:23;13.60;99.90
15969;DHT22;8085;53.472;9.794;2022-10-31T15:43:51;13.50;99.90
15969;DHT22;8085;53.472;9.794;2022-10-31T15:46:19;13.50;99.90
15969;DHT22;8085;53.472;9.794;2022-10-31T15:48:47;13.40;99.90
15969;DHT22;8085;53.472;9.794;2022-10-31T15:51:14;13.40;99.90
15969;DHT22;8085;53.472;9.794;2022-10-31T15:53:44;13.30;99.90
15969;DHT22;8085;53.472;9.794;2022-10-31T15:56:19;13.30;99.90
15969;DHT22;8085;53.472;9.794;2022-10-31T15:58:48;13.20;99.90
15969;DHT22;8085;53.472;9.794;2022-10-31T16:01:22;13.20;99.90
15969;DHT22;8085;53.472;9.794;2022-10-31T16:04:01;13.10;99.90
15969;DHT22;8085;53.472;9.794;2022-10-31T16:06:29;13.10;99.90
15969;DHT22;8085;53.472;9.794;2022-10-31T16:08:56;13.10;99.90